createdAt,value
2022-12-18T00:01:25.280Z,-0.95
2022-12-18T00:03:53.986Z,-0.92
2022-12-18T00:06:22.817Z,-0.85
2022-12-18T00:08:49.996Z,-0.80
2022-12-18T00:11:19.890Z,-0.81
2022-12-18T00:13:47.547Z,-0.80
2022-12-18T00:16:21.388Z,-0.82
2022-12-18T00:18:49.460Z,-0.85
2022-12-18T00:21:17.198Z,-0.80
2022-12-18T00:23:45.924Z,-0.70
2022-12-18T00:26:15.875Z,-0.62
2022-12-18T00:28:43.539Z,-0.60
2022-12-18T00:31:13.837Z,-0.59
2022-12-18T00:33:43.284Z,-0.57
2022-12-18T00:36:13.672Z,-0.57
2022-12-18T00:38:41.794Z,-0.56
2022-12-18T00:41:12.851Z,-0.54
2022-12-18T00:43:41.191Z,-0.47
2022-12-18T00:46:08.497Z,-0.38
2022-12-18T00:48:36.667Z,-0.35
2022-12-18T00:51:05.274Z,-0.37
2022-12-18T00:53:32.226Z,-0.39
2022-12-18T00:55:59.143Z,-0.43
2022-12-18T00:58:26.183Z,-0.45
2022-12-18T01:00:53.433Z,-0.44
2022-12-18T01:03:20.445Z,-0.47
2022-12-18T01:05:47.371Z,-0.47
2022-12-18T01:08:16.756Z,-0.48
2022-12-18T01:10:43.754Z,-0.50
2022-12-18T01:13:10.694Z,-0.49
2022-12-18T01:15:37.947Z,-0.47
2022-12-18T01:18:05.052Z,-0.44
2022-12-18T01:20:31.992Z,-0.42
2022-12-18T01:22:58.986Z,-0.43
2022-12-18T01:25:27.309Z,-0.44
2022-12-18T01:27:54.236Z,-0.51
2022-12-18T01:30:21.256Z,-0.57
2022-12-18T01:32:48.558Z,-0.59
2022-12-18T01:35:15.751Z,-0.58
2022-12-18T01:37:42.723Z,-0.54
2022-12-18T01:40:10.975Z,-0.52
2022-12-18T01:42:39.245Z,-0.49
2022-12-18T01:45:28.125Z,-0.46
2022-12-18T01:47:58.295Z,-0.40
2022-12-18T01:50:32.531Z,-0.40
2022-12-18T01:53:06.482Z,-0.38
2022-12-18T01:55:41.260Z,-0.37
2022-12-18T01:58:11.063Z,-0.35
2022-12-18T02:00:38.105Z,-0.34
2022-12-18T02:03:05.204Z,-0.32
2022-12-18T02:05:45.812Z,-0.30
2022-12-18T02:08:22.256Z,-0.24
2022-12-18T02:10:58.077Z,-0.21
2022-12-18T02:13:41.465Z,-0.20
2022-12-18T02:16:24.729Z,-0.26
2022-12-18T02:18:59.189Z,-0.28
2022-12-18T02:21:39.214Z,-0.33
2022-12-18T02:24:26.177Z,-0.40
2022-12-18T02:26:59.082Z,-0.39
2022-12-18T02:29:33.632Z,-0.40
2022-12-18T02:32:03.206Z,-0.39
2022-12-18T02:34:37.617Z,-0.36
2022-12-18T02:37:10.533Z,-0.32
2022-12-18T02:39:42.821Z,-0.24
2022-12-18T02:42:12.809Z,-0.21
2022-12-18T02:44:45.373Z,-0.26
2022-12-18T02:47:15.490Z,-0.34
2022-12-18T02:49:58.718Z,-0.40
2022-12-18T02:52:35.913Z,-0.42
2022-12-18T02:55:19.839Z,-0.41
2022-12-18T02:57:56.224Z,-0.43
2022-12-18T03:00:32.141Z,-0.44
2022-12-18T03:03:05.477Z,-0.46
2022-12-18T03:05:40.654Z,-0.53
2022-12-18T03:08:13.268Z,-0.60
2022-12-18T03:10:50.456Z,-0.62
2022-12-18T03:13:28.988Z,-0.62
2022-12-18T03:15:59.928Z,-0.62
2022-12-18T03:18:36.216Z,-0.62
2022-12-18T03:21:08.856Z,-0.59
2022-12-18T03:23:43.962Z,-0.62
2022-12-18T03:26:18.726Z,-0.69
2022-12-18T03:28:52.223Z,-0.71
2022-12-18T03:31:23.300Z,-0.71
2022-12-18T03:33:55.288Z,-0.70
2022-12-18T03:36:24.117Z,-0.68
2022-12-18T03:38:51.960Z,-0.62
2022-12-18T03:41:30.257Z,-0.58
2022-12-18T03:44:12.382Z,-0.53
2022-12-18T03:46:50.407Z,-0.48
2022-12-18T03:49:28.928Z,-0.39
2022-12-18T03:52:03.879Z,-0.33
2022-12-18T03:54:33.822Z,-0.33
2022-12-18T03:57:10.740Z,-0.38
2022-12-18T03:59:40.863Z,-0.44
2022-12-18T04:02:10.056Z,-0.49
2022-12-18T04:04:41.057Z,-0.50
2022-12-18T04:07:09.530Z,-0.50
2022-12-18T04:09:39.573Z,-0.53
2022-12-18T04:12:07.353Z,-0.54
2022-12-18T04:14:36.517Z,-0.50
2022-12-18T04:17:04.898Z,-0.45
2022-12-18T04:19:31.901Z,-0.46
2022-12-18T04:21:58.912Z,-0.48
2022-12-18T04:24:25.919Z,-0.48
2022-12-18T04:26:52.905Z,-0.51
2022-12-18T04:29:19.842Z,-0.52
2022-12-18T04:31:46.819Z,-0.54
2022-12-18T04:34:15.275Z,-0.57
2022-12-18T04:36:42.258Z,-0.69
2022-12-18T04:39:09.309Z,-0.73
2022-12-18T04:41:36.278Z,-0.80
2022-12-18T04:44:03.638Z,-0.81
2022-12-18T04:46:30.656Z,-0.75
2022-12-18T04:48:57.659Z,-0.72
2022-12-18T04:51:26.846Z,-0.71
2022-12-18T04:53:54.366Z,-0.73
2022-12-18T04:56:21.445Z,-0.78
2022-12-18T04:58:48.520Z,-0.82
2022-12-18T05:01:17.908Z,-0.82
2022-12-18T05:03:45.744Z,-0.85
2022-12-18T05:06:12.963Z,-0.86
2022-12-18T05:08:41.358Z,-0.89
2022-12-18T05:11:12.421Z,-0.89
2022-12-18T05:13:39.921Z,-0.90
2022-12-18T05:16:08.527Z,-0.87
2022-12-18T05:18:36.161Z,-0.87
2022-12-18T05:21:04.194Z,-0.86
2022-12-18T05:23:31.166Z,-0.89
2022-12-18T05:26:02.286Z,-0.90
2022-12-18T05:28:32.918Z,-0.91
2022-12-18T05:31:03.418Z,-0.88
2022-12-18T05:33:34.388Z,-0.92
2022-12-18T05:36:04.501Z,-0.91
2022-12-18T05:38:33.616Z,-0.83
2022-12-18T05:41:02.377Z,-0.78
2022-12-18T05:43:30.444Z,-0.70
2022-12-18T05:45:58.383Z,-0.67
2022-12-18T05:48:25.875Z,-0.66
2022-12-18T05:50:52.892Z,-0.68
2022-12-18T05:53:21.501Z,-0.68
2022-12-18T05:55:48.785Z,-0.68
2022-12-18T05:58:17.236Z,-0.67
2022-12-18T06:00:46.534Z,-0.66
2022-12-18T06:03:15.056Z,-0.69
2022-12-18T06:05:45.262Z,-0.71
2022-12-18T06:08:13.979Z,-0.68
2022-12-18T06:10:41.816Z,-0.69
2022-12-18T06:13:09.257Z,-0.74
2022-12-18T06:15:39.105Z,-0.82
2022-12-18T06:18:06.210Z,-0.88
2022-12-18T06:20:34.085Z,-0.96
2022-12-18T06:23:01.268Z,-1.09
2022-12-18T06:25:28.251Z,-1.13
2022-12-18T06:27:55.237Z,-1.20
2022-12-18T06:30:23.436Z,-1.23
2022-12-18T06:32:56.595Z,-1.29
2022-12-18T06:35:24.010Z,-1.35
2022-12-18T06:37:51.704Z,-1.31
2022-12-18T06:40:19.397Z,-1.27
2022-12-18T06:42:46.424Z,-1.21
2022-12-18T06:45:13.457Z,-1.14
2022-12-18T06:47:40.437Z,-1.13
2022-12-18T06:50:09.154Z,-1.14
2022-12-18T06:52:36.166Z,-1.15
2022-12-18T06:55:03.847Z,-1.14
2022-12-18T06:57:30.794Z,-1.19
2022-12-18T06:59:57.728Z,-1.20
2022-12-18T07:02:24.807Z,-1.20
2022-12-18T07:04:51.814Z,-1.19
2022-12-18T07:07:20.139Z,-1.21
2022-12-18T07:09:47.106Z,-1.25
2022-12-18T07:12:14.037Z,-1.26
2022-12-18T07:14:41.002Z,-1.31
2022-12-18T07:17:08.310Z,-1.34
2022-12-18T07:19:35.549Z,-1.37
2022-12-18T07:22:02.788Z,-1.41
2022-12-18T07:24:31.234Z,-1.45
2022-12-18T07:26:58.184Z,-1.47
2022-12-18T07:29:25.456Z,-1.43
2022-12-18T07:31:52.494Z,-1.40
2022-12-18T07:34:19.553Z,-1.38
2022-12-18T07:36:46.464Z,-1.36
2022-12-18T07:39:13.585Z,-1.28
2022-12-18T07:41:47.256Z,-1.23
2022-12-18T07:44:14.733Z,-1.21
2022-12-18T07:46:41.678Z,-1.20
2022-12-18T07:49:08.713Z,-1.14
2022-12-18T07:51:35.646Z,-1.08
2022-12-18T07:54:02.668Z,-1.04
2022-12-18T07:56:31.210Z,-1.12
2022-12-18T07:59:00.566Z,-1.14
2022-12-18T08:01:28.225Z,-1.12
2022-12-18T08:03:55.419Z,-1.05
2022-12-18T08:06:24.252Z,-1.02
2022-12-18T08:08:53.617Z,-1.01
2022-12-18T08:11:20.893Z,-0.97
2022-12-18T08:13:48.585Z,-0.94
2022-12-18T08:16:18.846Z,-0.90
2022-12-18T08:18:46.875Z,-0.83
2022-12-18T08:21:19.028Z,-0.83
2022-12-18T08:23:48.449Z,-0.85
2022-12-18T08:26:16.722Z,-0.85
2022-12-18T08:28:44.207Z,-0.82
2022-12-18T08:31:11.947Z,-0.74
2022-12-18T08:33:42.442Z,-0.63
2022-12-18T08:36:11.849Z,-0.59
2022-12-18T08:38:39.120Z,-0.58
2022-12-18T08:41:08.758Z,-0.59
2022-12-18T08:43:54.411Z,-0.60
2022-12-18T08:46:24.751Z,-0.61
2022-12-18T08:48:55.346Z,-0.65
2022-12-18T08:51:22.423Z,-0.75
2022-12-18T08:53:49.454Z,-0.85
2022-12-18T08:56:17.591Z,-0.85
2022-12-18T08:58:44.611Z,-0.80
2022-12-18T09:01:13.880Z,-0.69
2022-12-18T09:03:41.679Z,-0.49
2022-12-18T09:06:14.020Z,-0.34
2022-12-18T09:08:41.587Z,-0.32
2022-12-18T09:11:20.002Z,-0.38
2022-12-18T09:13:47.026Z,-0.36
2022-12-18T09:16:14.030Z,-0.23
2022-12-18T09:18:41.369Z,-0.17
2022-12-18T09:21:12.658Z,-0.14
2022-12-18T09:23:39.703Z,-0.08
2022-12-18T09:26:06.929Z,-0.02
2022-12-18T09:28:34.344Z,0.12
2022-12-18T09:31:08.476Z,0.27
2022-12-18T09:33:36.886Z,0.40
2022-12-18T09:36:06.731Z,0.55
2022-12-18T09:38:35.935Z,0.68
2022-12-18T09:41:16.206Z,0.80
2022-12-18T09:43:49.414Z,0.85
2022-12-18T09:46:30.321Z,0.89
2022-12-18T09:49:04.790Z,0.95
2022-12-18T09:51:41.943Z,1.04
2022-12-18T09:54:18.928Z,1.19
2022-12-18T09:56:45.993Z,1.31
2022-12-18T09:59:24.822Z,1.42
2022-12-18T10:01:52.294Z,1.35
2022-12-18T10:04:19.725Z,1.34
2022-12-18T10:06:55.811Z,1.39
2022-12-18T10:09:37.490Z,1.46
2022-12-18T10:12:17.062Z,1.47
2022-12-18T10:14:54.427Z,1.51
2022-12-18T10:17:36.488Z,1.46
2022-12-18T10:20:14.454Z,1.47
2022-12-18T10:22:54.056Z,1.26
2022-12-18T10:25:28.615Z,1.30
2022-12-18T10:28:08.363Z,1.27
2022-12-18T10:30:35.522Z,1.26
2022-12-18T10:33:03.553Z,1.18
2022-12-18T10:35:30.530Z,1.27
2022-12-18T10:38:07.651Z,1.32
2022-12-18T10:40:51.240Z,1.41
2022-12-18T10:43:24.709Z,1.45
2022-12-18T10:46:20.247Z,1.41
2022-12-18T10:48:57.036Z,1.44
2022-12-18T10:51:31.357Z,1.41
2022-12-18T10:54:03.276Z,1.38
2022-12-18T10:56:36.643Z,1.41
2022-12-18T10:59:06.722Z,1.40
2022-12-18T11:01:50.662Z,1.38
2022-12-18T11:04:21.637Z,1.32
2022-12-18T11:06:59.313Z,1.30
2022-12-18T11:09:28.573Z,1.34
2022-12-18T11:12:00.116Z,1.33
2022-12-18T11:14:31.884Z,1.34
2022-12-18T11:19:57.444Z,1.26
2022-12-18T11:22:28.712Z,1.34
2022-12-18T11:27:56.280Z,1.49
2022-12-18T11:30:27.735Z,1.65
2022-12-18T11:33:02.764Z,1.77
2022-12-18T11:35:43.052Z,1.87
2022-12-18T11:38:24.190Z,2.66
2022-12-18T11:40:59.958Z,3.68
2022-12-18T11:43:35.719Z,4.42
2022-12-18T11:46:13.480Z,4.97
2022-12-18T11:48:51.616Z,5.49
2022-12-18T11:51:30.527Z,5.87
2022-12-18T11:53:57.594Z,5.95
2022-12-18T11:56:33.517Z,5.80
2022-12-18T11:59:16.149Z,5.56
2022-12-18T12:01:53.489Z,5.26
2022-12-18T12:04:54.071Z,4.90
2022-12-18T12:07:38.366Z,4.68
2022-12-18T12:10:23.713Z,4.68
2022-12-18T12:13:12.334Z,4.66
2022-12-18T12:15:59.544Z,4.71
2022-12-18T12:18:44.457Z,4.53
2022-12-18T12:21:24.955Z,4.33
2022-12-18T12:24:02.232Z,4.24
2022-12-18T12:26:40.827Z,4.10
2022-12-18T12:29:30.012Z,4.02
2022-12-18T12:32:17.543Z,3.98
2022-12-18T12:35:09.239Z,3.90
2022-12-18T12:37:52.801Z,3.84
2022-12-18T12:40:51.367Z,3.81
2022-12-18T12:43:26.768Z,3.59
2022-12-18T12:46:00.922Z,3.39
2022-12-18T12:48:41.736Z,3.35
2022-12-18T12:51:17.394Z,3.37
2022-12-18T12:53:45.258Z,3.34
2022-12-18T12:56:16.823Z,3.35
2022-12-18T12:59:02.891Z,3.19
2022-12-18T13:01:42.032Z,3.20
2022-12-18T13:04:27.584Z,3.11
2022-12-18T13:07:06.243Z,3.13
2022-12-18T13:09:36.855Z,3.09
2022-12-18T13:12:33.420Z,2.99
2022-12-18T13:15:25.105Z,2.94
2022-12-18T13:18:12.517Z,2.92
2022-12-18T13:20:45.628Z,2.90
2022-12-18T13:23:37.164Z,2.89
2022-12-18T13:26:32.343Z,2.94
2022-12-18T13:29:02.872Z,3.03
2022-12-18T13:32:01.665Z,3.03
2022-12-18T13:34:32.710Z,2.91
2022-12-18T13:37:45.323Z,2.80
2022-12-18T13:40:56.167Z,2.74
2022-12-18T13:43:37.837Z,2.80
2022-12-18T13:46:23.681Z,2.69
2022-12-18T13:48:56.604Z,2.76
2022-12-18T13:51:25.434Z,2.67
2022-12-18T13:53:58.891Z,2.66
2022-12-18T13:56:28.555Z,2.55
2022-12-18T13:59:17.825Z,2.62
2022-12-18T14:01:54.817Z,2.63
2022-12-18T14:04:27.300Z,2.65
2022-12-18T14:06:59.879Z,2.65
2022-12-18T14:10:18.887Z,2.69
2022-12-18T14:13:00.355Z,2.64
2022-12-18T14:15:35.002Z,2.63
2022-12-18T14:18:20.383Z,2.62
2022-12-18T14:20:52.893Z,2.70
2022-12-18T14:23:30.699Z,2.65
2022-12-18T14:26:03.775Z,2.74
2022-12-18T14:28:32.865Z,2.80
2022-12-18T14:31:00.078Z,2.81
2022-12-18T14:33:28.707Z,2.87
2022-12-18T14:36:01.387Z,2.98
2022-12-18T14:38:31.560Z,3.03
2022-12-18T14:41:02.446Z,3.05
2022-12-18T14:43:33.901Z,3.02
2022-12-18T14:46:02.527Z,2.99
2022-12-18T14:48:39.861Z,2.94
2022-12-18T14:51:17.202Z,3.04
2022-12-18T14:53:54.148Z,3.08
2022-12-18T14:56:26.381Z,3.03
2022-12-18T14:58:57.478Z,2.87
2022-12-18T15:01:29.893Z,2.85
2022-12-18T15:03:59.662Z,2.69
2022-12-18T15:06:34.438Z,2.51
2022-12-18T15:09:04.788Z,2.53
2022-12-18T15:11:46.869Z,2.59
2022-12-18T15:14:35.794Z,2.63
2022-12-18T15:17:07.461Z,2.57
2022-12-18T15:19:41.385Z,2.60
2022-12-18T15:22:23.602Z,2.62
2022-12-18T15:24:51.710Z,2.63
2022-12-18T15:27:38.548Z,2.66
2022-12-18T15:30:22.952Z,2.59
2022-12-18T15:32:51.632Z,2.55
2022-12-18T15:35:23.100Z,2.44
2022-12-18T15:37:51.747Z,2.61
2022-12-18T15:40:22.275Z,2.67
2022-12-18T15:43:13.884Z,2.65
2022-12-18T15:45:41.160Z,2.69
2022-12-18T15:48:21.081Z,2.76
2022-12-18T15:50:51.689Z,2.87
2022-12-18T15:53:19.751Z,2.81
2022-12-18T15:56:05.603Z,2.91
2022-12-18T15:58:34.208Z,2.90
2022-12-18T16:01:02.208Z,2.97
2022-12-18T16:03:29.875Z,3.02
2022-12-18T16:05:59.047Z,2.87
2022-12-18T16:08:27.398Z,2.91
2022-12-18T16:10:56.805Z,3.01
2022-12-18T16:13:23.995Z,2.97
2022-12-18T16:16:10.752Z,2.96
2022-12-18T16:18:37.943Z,2.90
2022-12-18T16:21:05.488Z,2.67
2022-12-18T16:23:32.424Z,2.68
2022-12-18T16:25:59.414Z,2.56
2022-12-18T16:28:26.352Z,2.52
2022-12-18T16:30:53.350Z,2.51
2022-12-18T16:33:21.665Z,2.54
2022-12-18T16:35:53.313Z,2.55
2022-12-18T16:38:20.745Z,2.59
2022-12-18T16:41:11.502Z,2.57
2022-12-18T16:43:39.072Z,2.54
2022-12-18T16:46:06.328Z,2.42
2022-12-18T16:48:34.690Z,2.45
2022-12-18T16:51:05.236Z,2.48
2022-12-18T16:53:34.183Z,2.57
2022-12-18T16:56:02.325Z,2.56
2022-12-18T16:58:29.272Z,2.53
2022-12-18T17:00:56.197Z,2.60
2022-12-18T17:03:23.224Z,2.47
2022-12-18T17:05:53.282Z,2.45
2022-12-18T17:08:20.492Z,2.54
2022-12-18T17:10:47.449Z,2.57
2022-12-18T17:13:14.426Z,2.61
2022-12-18T17:15:41.441Z,2.56
2022-12-18T17:18:08.477Z,2.59
2022-12-18T17:20:35.430Z,2.47
2022-12-18T17:23:04.425Z,2.45
2022-12-18T17:25:31.350Z,2.42
2022-12-18T17:27:58.271Z,2.33
2022-12-18T17:30:25.221Z,2.39
2022-12-18T17:32:52.182Z,2.37
2022-12-18T17:35:19.751Z,2.26
2022-12-18T17:37:46.749Z,2.38
2022-12-18T17:40:15.111Z,2.44
2022-12-18T17:42:42.066Z,2.34
2022-12-18T17:45:10.164Z,2.37
2022-12-18T17:47:37.718Z,2.38
2022-12-18T17:50:05.366Z,2.33
2022-12-18T17:52:32.291Z,2.14
2022-12-18T17:54:59.241Z,2.27
2022-12-18T17:57:27.577Z,2.39
2022-12-18T17:59:54.534Z,2.45
2022-12-18T18:02:22.599Z,2.41
2022-12-18T18:04:50.154Z,2.36
2022-12-18T18:07:17.109Z,2.31
2022-12-18T18:09:44.197Z,2.32
2022-12-18T18:12:30.078Z,2.29
2022-12-18T18:14:58.727Z,2.31
2022-12-18T18:17:26.084Z,2.40
2022-12-18T18:19:53.213Z,2.45
2022-12-18T18:22:20.330Z,2.63
2022-12-18T18:24:47.400Z,2.66
2022-12-18T18:27:15.005Z,2.56
2022-12-18T18:29:42.088Z,2.57
2022-12-18T18:32:10.583Z,2.58
2022-12-18T18:34:37.562Z,2.59
2022-12-18T18:37:04.620Z,2.70
2022-12-18T18:39:31.734Z,2.82
2022-12-18T18:41:59.295Z,2.89
2022-12-18T18:44:26.662Z,2.93
2022-12-18T18:46:55.397Z,2.75
2022-12-18T18:49:27.238Z,2.72
2022-12-18T18:51:54.972Z,2.84
2022-12-18T18:54:22.134Z,2.77
2022-12-18T18:59:37.309Z,2.85
2022-12-18T19:02:05.152Z,2.77
2022-12-18T19:04:34.715Z,2.55
2022-12-18T19:07:02.043Z,2.33
2022-12-18T19:09:31.230Z,2.39
2022-12-18T19:12:16.958Z,2.52
2022-12-18T19:14:44.320Z,2.64
2022-12-18T19:17:11.517Z,2.71
2022-12-18T19:19:40.272Z,2.87
2022-12-18T19:22:07.484Z,3.01
2022-12-18T19:24:35.770Z,3.01
2022-12-18T19:27:02.873Z,3.17
2022-12-18T19:29:29.843Z,3.05
2022-12-18T19:31:56.909Z,3.02
2022-12-18T19:34:23.917Z,2.96
2022-12-18T19:36:57.962Z,3.11
2022-12-18T19:39:27.129Z,3.28
2022-12-18T19:41:54.492Z,3.36
2022-12-18T19:44:21.430Z,3.34
2022-12-18T19:46:51.518Z,3.39
2022-12-18T19:49:22.269Z,3.48
2022-12-18T19:51:50.415Z,3.50
2022-12-18T19:54:19.042Z,3.54
2022-12-18T19:56:46.514Z,3.60
2022-12-18T19:59:14.366Z,3.65
2022-12-18T20:01:41.672Z,3.68
2022-12-18T20:04:09.038Z,3.71
2022-12-18T20:06:46.943Z,3.60
2022-12-18T20:09:14.532Z,3.67
2022-12-18T20:11:43.183Z,3.70
2022-12-18T20:14:12.028Z,3.74
2022-12-18T20:16:40.016Z,3.68
2022-12-18T20:19:07.592Z,3.76
2022-12-18T20:21:35.398Z,3.76
2022-12-18T20:24:02.414Z,3.71
2022-12-18T20:26:30.096Z,3.71
2022-12-18T20:28:58.416Z,3.80
2022-12-18T20:31:25.556Z,3.59
2022-12-18T20:33:54.475Z,3.53
2022-12-18T20:36:25.873Z,3.62
2022-12-18T20:38:57.272Z,3.57
2022-12-18T20:41:31.036Z,3.58
2022-12-18T20:44:21.467Z,3.71
2022-12-18T20:46:53.260Z,3.77
2022-12-18T20:49:20.338Z,3.73
2022-12-18T20:51:51.259Z,3.69
2022-12-18T20:54:19.404Z,3.64
2022-12-18T20:56:46.379Z,3.59
2022-12-18T20:59:14.748Z,3.59
2022-12-18T21:01:48.032Z,3.66
2022-12-18T21:04:18.020Z,3.75
2022-12-18T21:06:51.385Z,3.73
2022-12-18T21:09:18.866Z,3.83
2022-12-18T21:12:04.638Z,3.74
2022-12-18T21:14:33.026Z,3.67
2022-12-18T21:17:02.900Z,3.62
2022-12-18T21:19:30.282Z,3.71
2022-12-18T21:21:58.325Z,3.75
2022-12-18T21:24:26.326Z,3.77
2022-12-18T21:26:55.332Z,3.80
2022-12-18T21:29:24.627Z,3.84
2022-12-18T21:31:54.636Z,3.86
2022-12-18T21:34:26.238Z,3.85
2022-12-18T21:36:54.363Z,3.87
2022-12-18T21:39:22.533Z,3.86
2022-12-18T21:42:08.737Z,3.89
2022-12-18T21:44:41.800Z,3.95
2022-12-18T21:47:21.350Z,4.01
2022-12-18T21:49:49.679Z,4.02
2022-12-18T21:52:17.108Z,4.01
2022-12-18T21:54:44.054Z,4.03
2022-12-18T21:57:13.248Z,4.08
2022-12-18T21:59:43.220Z,4.14
2022-12-18T22:02:14.860Z,4.19
2022-12-18T22:04:43.290Z,4.25
2022-12-18T22:07:11.886Z,4.26
2022-12-18T22:09:39.438Z,4.28
2022-12-18T22:12:08.878Z,4.26
2022-12-18T22:14:35.905Z,4.30
2022-12-18T22:17:02.900Z,4.36
2022-12-18T22:19:32.433Z,4.42
2022-12-18T22:22:00.356Z,4.31
2022-12-18T22:24:29.090Z,4.32
2022-12-18T22:27:01.721Z,4.39
2022-12-18T22:29:48.005Z,4.37
2022-12-18T22:32:16.939Z,4.23
2022-12-18T22:34:50.374Z,4.26
2022-12-18T22:37:17.298Z,4.32
2022-12-18T22:39:44.240Z,4.36
2022-12-18T22:42:11.474Z,4.41
2022-12-18T22:44:38.411Z,4.43
2022-12-18T22:47:07.215Z,4.45
2022-12-18T22:49:35.750Z,4.51
2022-12-18T22:52:06.805Z,4.54
2022-12-18T22:54:34.003Z,4.56
2022-12-18T22:57:00.925Z,4.57
2022-12-18T22:59:27.870Z,4.55
2022-12-18T23:01:58.442Z,4.52
2022-12-18T23:04:30.596Z,4.54
2022-12-18T23:07:05.869Z,4.55
2022-12-18T23:09:33.133Z,4.59
2022-12-18T23:12:00.438Z,4.59
2022-12-18T23:14:27.935Z,4.67
2022-12-18T23:16:54.990Z,4.71
2022-12-18T23:19:23.424Z,4.72
2022-12-18T23:21:51.132Z,4.59
2022-12-18T23:24:19.424Z,4.50
2022-12-18T23:26:46.358Z,4.50
2022-12-18T23:29:13.358Z,4.50
2022-12-18T23:31:40.445Z,4.52
2022-12-18T23:34:08.703Z,4.54
2022-12-18T23:36:45.284Z,4.50
2022-12-18T23:39:17.980Z,4.53
2022-12-18T23:41:58.798Z,4.57
2022-12-18T23:44:26.131Z,4.46
2022-12-18T23:46:53.199Z,4.49
2022-12-18T23:49:20.456Z,4.56
2022-12-18T23:51:47.394Z,4.64
2022-12-18T23:54:14.560Z,4.69
2022-12-18T23:56:41.575Z,4.78
2022-12-18T23:59:10.358Z,4.85
